createdAt,value
2019-02-03T00:00:30.751Z,90.15
2019-02-03T00:01:38.819Z,95.47
2019-02-03T00:02:43.783Z,92.88
2019-02-03T00:03:49.410Z,100.25
2019-02-03T00:04:54.757Z,106.30
2019-02-03T00:05:59.664Z,82.92
2019-02-03T00:07:04.982Z,89.25
2019-02-03T00:08:10.134Z,96.42
2019-02-03T00:09:16.578Z,89.47
2019-02-03T00:10:21.550Z,84.05
2019-02-03T00:11:26.514Z,97.90
2019-02-03T00:12:31.612Z,88.50
2019-02-03T00:13:36.988Z,91.92
2019-02-03T00:14:42.037Z,94.58
2019-02-03T00:15:47.340Z,86.42
2019-02-03T00:16:52.367Z,95.57
2019-02-03T00:17:57.469Z,96.25
2019-02-03T00:19:02.516Z,86.28
2019-02-03T00:20:08.982Z,94.95
2019-02-03T00:21:14.317Z,95.25
2019-02-03T00:22:19.264Z,108.15
2019-02-03T00:23:24.609Z,106.60
2019-02-03T00:24:29.773Z,82.85
2019-02-03T00:25:38.304Z,99.47
2019-02-03T00:26:44.005Z,100.87
2019-02-03T00:27:49.026Z,103.78
2019-02-03T00:28:54.299Z,114.70
2019-02-03T00:30:00.361Z,101.58
2019-02-03T00:31:06.299Z,110.22
2019-02-03T00:32:11.349Z,104.53
2019-02-03T00:33:16.642Z,98.33
2019-02-03T00:34:21.663Z,95.30
2019-02-03T00:35:26.671Z,87.60
2019-02-03T00:36:31.618Z,99.42
2019-02-03T00:37:37.022Z,93.15
2019-02-03T00:38:42.361Z,96.12
2019-02-03T00:39:47.273Z,91.00
2019-02-03T00:40:52.405Z,74.03
2019-02-03T00:41:57.696Z,92.33
2019-02-03T00:43:02.939Z,102.65
2019-02-03T00:44:08.326Z,100.92
2019-02-03T00:45:15.099Z,86.50
2019-02-03T00:46:20.751Z,115.15
2019-02-03T00:47:25.961Z,101.80
2019-02-03T00:48:31.081Z,100.27
2019-02-03T00:49:36.075Z,100.05
2019-02-03T00:50:41.144Z,91.50
2019-02-03T00:51:46.129Z,105.58
2019-02-03T00:52:51.070Z,97.40
2019-02-03T00:53:56.073Z,80.03
2019-02-03T00:55:00.990Z,95.38
2019-02-03T00:56:06.633Z,90.17
2019-02-03T00:57:11.541Z,95.25
2019-02-03T00:58:16.511Z,99.92
2019-02-03T00:59:21.596Z,97.08
2019-02-03T01:00:26.575Z,102.80
2019-02-03T01:01:31.657Z,95.05
2019-02-03T01:02:36.717Z,99.62
2019-02-03T01:03:41.846Z,98.75
2019-02-03T01:04:46.860Z,103.72
2019-02-03T01:05:52.004Z,106.20
2019-02-03T01:06:57.946Z,105.32
2019-02-03T01:08:03.309Z,115.35
2019-02-03T01:09:11.501Z,99.17
2019-02-03T01:10:18.532Z,108.78
2019-02-03T01:11:24.069Z,105.52
2019-02-03T01:12:29.467Z,113.40
2019-02-03T01:13:34.414Z,101.15
2019-02-03T01:14:40.008Z,98.70
2019-02-03T01:15:45.061Z,111.15
2019-02-03T01:16:50.294Z,110.00
2019-02-03T01:17:55.662Z,119.37
2019-02-03T01:19:00.865Z,111.42
2019-02-03T01:20:08.332Z,101.07
2019-02-03T01:21:13.334Z,108.00
2019-02-03T01:22:18.416Z,99.25
2019-02-03T01:23:23.410Z,86.22
2019-02-03T01:24:28.315Z,106.10
2019-02-03T01:25:33.410Z,107.25
2019-02-03T01:26:38.904Z,104.40
2019-02-03T01:27:44.391Z,106.45
2019-02-03T01:28:50.415Z,118.15
2019-02-03T01:29:55.694Z,105.00
2019-02-03T01:31:01.091Z,118.75
2019-02-03T01:32:06.294Z,121.15
2019-02-03T01:33:11.391Z,109.15
2019-02-03T01:34:17.151Z,115.77
2019-02-03T01:35:22.797Z,118.00
2019-02-03T01:36:28.108Z,125.10
2019-02-03T01:37:39.762Z,109.55
2019-02-03T01:38:40.174Z,133.22
2019-02-03T01:39:45.134Z,119.42
2019-02-03T01:40:50.228Z,117.85
2019-02-03T01:41:55.605Z,112.83
2019-02-03T01:43:00.617Z,112.77
2019-02-03T01:44:05.867Z,112.72
2019-02-03T01:45:13.289Z,111.42
2019-02-03T01:46:18.479Z,119.80
2019-02-03T01:47:24.468Z,115.03
2019-02-03T01:48:29.492Z,115.95
2019-02-03T01:49:35.101Z,112.60
2019-02-03T01:50:40.105Z,110.20
2019-02-03T01:51:45.050Z,129.65
2019-02-03T01:52:50.287Z,116.97
2019-02-03T01:53:55.204Z,126.62
2019-02-03T01:55:00.337Z,116.05
2019-02-03T01:56:05.384Z,122.07
2019-02-03T01:57:10.385Z,129.27
2019-02-03T01:58:15.690Z,115.47
2019-02-03T01:59:20.803Z,116.88
2019-02-03T02:00:27.031Z,123.82
2019-02-03T02:01:32.550Z,122.72
2019-02-03T02:02:37.604Z,116.33
2019-02-03T02:03:42.820Z,112.57
2019-02-03T02:04:49.346Z,113.60
2019-02-03T02:05:54.343Z,116.97
2019-02-03T02:06:59.701Z,118.57
2019-02-03T02:08:04.889Z,122.33
2019-02-03T02:09:10.046Z,107.85
2019-02-03T02:10:17.842Z,112.65
2019-02-03T02:11:22.832Z,105.00
2019-02-03T02:12:27.769Z,115.17
2019-02-03T02:13:32.723Z,107.75
2019-02-03T02:14:37.650Z,105.80
2019-02-03T02:15:43.661Z,108.70
2019-02-03T02:16:48.755Z,99.28
2019-02-03T02:17:54.143Z,108.97
2019-02-03T02:18:59.061Z,117.97
2019-02-03T02:20:05.323Z,112.50
2019-02-03T02:21:10.331Z,99.95
2019-02-03T02:22:15.301Z,102.70
2019-02-03T02:23:20.759Z,109.78
2019-02-03T02:24:25.985Z,105.92
2019-02-03T02:25:31.429Z,106.87
2019-02-03T02:26:36.353Z,107.40
2019-02-03T02:27:41.822Z,92.10
2019-02-03T02:28:46.792Z,107.85
2019-02-03T02:29:51.911Z,117.60
2019-02-03T02:30:56.990Z,107.78
2019-02-03T02:32:01.932Z,106.12
2019-02-03T02:33:07.608Z,113.60
2019-02-03T02:34:12.865Z,107.10
2019-02-03T02:35:17.808Z,104.47
2019-02-03T02:36:22.864Z,102.95
2019-02-03T02:37:28.104Z,103.58
2019-02-03T02:38:33.176Z,106.30
2019-02-03T02:39:38.394Z,103.25
2019-02-03T02:40:43.277Z,112.55
2019-02-03T02:41:48.315Z,100.27
2019-02-03T02:42:53.733Z,104.80
2019-02-03T02:43:58.955Z,115.95
2019-02-03T02:45:04.501Z,101.15
2019-02-03T02:46:09.865Z,99.52
2019-02-03T02:47:15.169Z,104.63
2019-02-03T02:48:20.167Z,103.30
2019-02-03T02:49:26.051Z,110.90
2019-02-03T02:50:36.735Z,107.97
2019-02-03T02:51:41.695Z,101.97
2019-02-03T02:52:46.719Z,88.85
2019-02-03T02:53:52.048Z,100.30
2019-02-03T02:54:57.092Z,106.97
2019-02-03T02:56:02.318Z,96.22
2019-02-03T02:57:07.599Z,103.05
2019-02-03T02:58:12.652Z,109.42
2019-02-03T02:59:18.178Z,99.55
2019-02-03T03:00:23.288Z,109.85
2019-02-03T03:01:28.649Z,102.42
2019-02-03T03:02:33.642Z,103.72
2019-02-03T03:03:38.557Z,95.67
2019-02-03T03:04:43.504Z,101.82
2019-02-03T03:05:48.556Z,105.60
2019-02-03T03:06:53.981Z,104.63
2019-02-03T03:07:59.076Z,107.17
2019-02-03T03:09:06.997Z,102.25
2019-02-03T03:10:13.375Z,103.25
2019-02-03T03:11:18.438Z,90.42
2019-02-03T03:12:23.949Z,103.40
2019-02-03T03:13:29.293Z,103.55
2019-02-03T03:14:34.259Z,98.90
2019-02-03T03:15:39.201Z,117.13
2019-02-03T03:16:45.513Z,96.87
2019-02-03T03:17:51.057Z,114.08
2019-02-03T03:18:56.075Z,110.72
2019-02-03T03:20:01.441Z,94.58
2019-02-03T03:21:06.530Z,100.07
2019-02-03T03:22:11.808Z,104.50
2019-02-03T03:23:16.855Z,103.10
2019-02-03T03:24:21.900Z,99.47
2019-02-03T03:25:27.048Z,93.55
2019-02-03T03:26:32.577Z,95.53
2019-02-03T03:27:37.684Z,101.62
2019-02-03T03:28:42.631Z,94.22
2019-02-03T03:29:47.533Z,99.20
2019-02-03T03:30:52.463Z,97.75
2019-02-03T03:31:57.818Z,92.08
2019-02-03T03:33:02.937Z,96.85
2019-02-03T03:34:07.861Z,94.92
2019-02-03T03:35:13.268Z,97.88
2019-02-03T03:36:18.676Z,94.40
2019-02-03T03:37:24.238Z,109.78
2019-02-03T03:38:32.246Z,102.92
2019-02-03T03:39:36.518Z,91.08
2019-02-03T03:40:42.044Z,100.85
2019-02-03T03:41:47.026Z,94.40
2019-02-03T03:42:52.657Z,100.15
2019-02-03T03:43:57.642Z,93.60
2019-02-03T03:45:02.664Z,89.00
2019-02-03T03:46:08.147Z,92.35
2019-02-03T03:47:13.099Z,104.43
2019-02-03T03:48:18.121Z,97.88
2019-02-03T03:49:23.124Z,92.10
2019-02-03T03:50:28.513Z,95.72
2019-02-03T03:51:34.532Z,106.55
2019-02-03T03:52:39.783Z,93.27
2019-02-03T03:53:44.744Z,91.32
2019-02-03T03:54:49.782Z,106.25
2019-02-03T03:55:54.832Z,95.55
2019-02-03T03:57:00.137Z,92.75
2019-02-03T03:58:05.926Z,92.78
2019-02-03T03:59:11.177Z,87.72
2019-02-03T04:00:19.347Z,93.45
2019-02-03T04:01:24.585Z,93.30
2019-02-03T04:02:30.235Z,96.75
2019-02-03T04:03:35.303Z,92.00
2019-02-03T04:04:40.261Z,94.13
2019-02-03T04:05:45.329Z,88.67
2019-02-03T04:06:50.461Z,96.97
2019-02-03T04:07:55.458Z,97.42
2019-02-03T04:09:00.689Z,82.37
2019-02-03T04:10:07.323Z,97.15
2019-02-03T04:11:12.683Z,92.27
2019-02-03T04:12:17.720Z,89.42
2019-02-03T04:13:22.659Z,96.60
2019-02-03T04:14:27.961Z,94.07
2019-02-03T04:15:33.094Z,93.05
2019-02-03T04:16:38.106Z,99.30
2019-02-03T04:17:45.402Z,95.90
2019-02-03T04:18:50.709Z,81.45
2019-02-03T04:19:56.108Z,90.53
2019-02-03T04:21:01.164Z,89.83
2019-02-03T04:22:06.283Z,81.80
2019-02-03T04:23:11.314Z,88.92
2019-02-03T04:24:16.969Z,79.55
2019-02-03T04:25:22.168Z,64.75
2019-02-03T04:26:27.174Z,91.47
2019-02-03T04:27:32.051Z,82.92
2019-02-03T04:28:37.018Z,89.20
2019-02-03T04:29:42.288Z,63.30
2019-02-03T04:30:47.271Z,93.60
2019-02-03T04:31:52.606Z,91.12
2019-02-03T04:32:57.539Z,88.50
2019-02-03T04:34:02.790Z,82.75
2019-02-03T04:35:07.980Z,94.37
2019-02-03T04:36:12.901Z,96.65
2019-02-03T04:37:17.870Z,87.30
2019-02-03T04:38:22.809Z,87.25
2019-02-03T04:39:27.740Z,88.97
2019-02-03T04:40:32.654Z,101.97
2019-02-03T04:41:37.554Z,96.35
2019-02-03T04:42:42.575Z,82.20
2019-02-03T04:43:47.812Z,94.10
2019-02-03T04:44:53.304Z,87.88
2019-02-03T04:45:58.965Z,96.15
2019-02-03T04:47:04.548Z,98.60
2019-02-03T04:48:09.594Z,97.42
2019-02-03T04:49:14.607Z,95.62
2019-02-03T04:50:21.347Z,85.35
2019-02-03T04:51:26.268Z,90.47
2019-02-03T04:52:31.473Z,89.65
2019-02-03T04:53:37.443Z,86.12
2019-02-03T04:54:42.383Z,82.62
2019-02-03T04:55:47.442Z,103.02
2019-02-03T04:56:52.451Z,91.95
2019-02-03T04:57:57.465Z,94.70
2019-02-03T04:59:02.596Z,83.65
2019-02-03T05:00:09.975Z,88.72
2019-02-03T05:01:14.991Z,83.58
2019-02-03T05:02:19.917Z,84.72
2019-02-03T05:03:25.017Z,86.10
2019-02-03T05:04:30.024Z,93.12
2019-02-03T05:05:34.976Z,94.13
2019-02-03T05:06:39.925Z,88.85
2019-02-03T05:07:45.195Z,92.17
2019-02-03T05:08:50.633Z,88.85
2019-02-03T05:09:56.149Z,81.92
2019-02-03T05:11:01.346Z,88.62
2019-02-03T05:12:06.365Z,80.53
2019-02-03T05:13:11.689Z,83.00
2019-02-03T05:14:16.603Z,90.55
2019-02-03T05:15:23.543Z,83.82
2019-02-03T05:16:28.524Z,82.47
2019-02-03T05:17:33.430Z,87.92
2019-02-03T05:18:38.701Z,94.50
2019-02-03T05:19:43.618Z,92.15
2019-02-03T05:20:48.817Z,91.15
2019-02-03T05:21:54.103Z,89.32
2019-02-03T05:22:59.042Z,95.25
2019-02-03T05:24:04.360Z,87.50
2019-02-03T05:25:13.171Z,80.80
2019-02-03T05:26:18.238Z,86.35
2019-02-03T05:27:23.232Z,88.47
2019-02-03T05:28:28.743Z,83.82
2019-02-03T05:29:33.728Z,90.45
2019-02-03T05:30:38.732Z,93.37
2019-02-03T05:31:43.780Z,93.27
2019-02-03T05:32:48.881Z,83.33
2019-02-03T05:33:54.210Z,91.95
2019-02-03T05:34:59.476Z,90.83
2019-02-03T05:36:04.946Z,83.33
2019-02-03T05:37:09.978Z,92.97
2019-02-03T05:38:33.117Z,84.90
2019-02-03T05:39:38.411Z,95.67
2019-02-03T05:40:43.374Z,93.75
2019-02-03T05:41:48.358Z,88.82
2019-02-03T05:42:53.418Z,104.90
2019-02-03T05:43:58.590Z,96.55
2019-02-03T05:45:04.102Z,98.35
2019-02-03T05:46:09.032Z,87.95
2019-02-03T05:47:13.933Z,95.92
2019-02-03T05:48:19.020Z,93.65
2019-02-03T05:49:24.207Z,93.58
2019-02-03T05:50:29.139Z,89.32
2019-02-03T05:51:34.429Z,93.17
2019-02-03T05:52:39.439Z,87.33
2019-02-03T05:53:44.377Z,98.30
2019-02-03T05:54:49.285Z,87.15
2019-02-03T05:55:55.476Z,98.07
2019-02-03T05:57:00.499Z,88.75
2019-02-03T05:58:05.593Z,92.85
2019-02-03T05:59:10.524Z,91.85
2019-02-03T06:00:27.133Z,95.15
2019-02-03T06:01:32.052Z,85.50
2019-02-03T06:02:36.972Z,93.45
2019-02-03T06:03:41.909Z,97.30
2019-02-03T06:04:47.404Z,100.58
2019-02-03T06:05:52.754Z,75.37
2019-02-03T06:06:57.704Z,77.80
2019-02-03T06:08:02.992Z,82.25
2019-02-03T06:09:09.488Z,73.50
2019-02-03T06:10:16.328Z,86.28
2019-02-03T06:11:21.302Z,88.62
2019-02-03T06:12:26.511Z,89.15
2019-02-03T06:13:31.664Z,86.65
2019-02-03T06:14:37.077Z,81.32
2019-02-03T06:15:42.002Z,82.55
2019-02-03T06:16:47.825Z,75.67
2019-02-03T06:17:53.187Z,84.03
2019-02-03T06:18:58.089Z,87.57
2019-02-03T06:20:03.080Z,86.47
2019-02-03T06:21:08.012Z,88.55
2019-02-03T06:22:12.961Z,92.45
2019-02-03T06:23:18.253Z,84.10
2019-02-03T06:24:23.385Z,80.45
2019-02-03T06:25:28.707Z,84.03
2019-02-03T06:26:33.716Z,84.42
2019-02-03T06:27:39.062Z,96.20
2019-02-03T06:28:44.342Z,86.35
2019-02-03T06:29:50.058Z,87.33
2019-02-03T06:31:15.025Z,87.15
2019-02-03T06:32:20.404Z,81.40
2019-02-03T06:33:26.155Z,86.67
2019-02-03T06:34:31.190Z,83.80
2019-02-03T06:35:36.780Z,85.95
2019-02-03T06:36:41.904Z,78.78
2019-02-03T06:37:46.998Z,74.30
2019-02-03T06:38:53.373Z,73.75
2019-02-03T06:39:58.380Z,84.95
2019-02-03T06:41:03.620Z,77.97
2019-02-03T06:42:09.113Z,88.67
2019-02-03T06:43:14.922Z,87.17
2019-02-03T06:44:19.816Z,83.82
2019-02-03T06:45:33.290Z,89.07
2019-02-03T06:46:57.591Z,84.52
2019-02-03T06:48:03.363Z,83.22
2019-02-03T06:49:15.202Z,81.78
2019-02-03T06:50:20.523Z,94.37
2019-02-03T06:51:25.581Z,74.53
2019-02-03T06:52:31.205Z,74.12
2019-02-03T06:53:36.415Z,84.70
2019-02-03T06:54:41.432Z,86.82
2019-02-03T06:55:46.772Z,87.15
2019-02-03T06:56:51.834Z,78.52
2019-02-03T06:57:57.772Z,80.05
2019-02-03T06:59:02.682Z,67.62
2019-02-03T07:00:07.887Z,75.17
2019-02-03T07:01:12.950Z,87.35
2019-02-03T07:02:17.966Z,84.22
2019-02-03T07:03:22.979Z,78.40
2019-02-03T07:04:27.983Z,72.60
2019-02-03T07:05:32.908Z,82.92
2019-02-03T07:06:37.883Z,78.07
2019-02-03T07:07:42.826Z,84.32
2019-02-03T07:08:47.773Z,74.30
2019-02-03T07:10:00.511Z,73.25
2019-02-03T07:10:59.490Z,82.85
2019-02-03T07:12:05.799Z,72.87
2019-02-03T07:13:11.159Z,80.15
2019-02-03T07:14:16.571Z,75.78
2019-02-03T07:15:21.556Z,82.40
2019-02-03T07:16:26.594Z,82.30
2019-02-03T07:17:31.556Z,69.12
2019-02-03T07:18:36.516Z,73.78
2019-02-03T07:19:41.578Z,77.55
2019-02-03T07:20:46.569Z,87.15
2019-02-03T07:21:51.809Z,69.20
2019-02-03T07:22:57.078Z,75.42
2019-02-03T07:24:02.047Z,79.25
2019-02-03T07:25:07.149Z,63.02
2019-02-03T07:26:12.181Z,68.83
2019-02-03T07:27:17.191Z,74.22
2019-02-03T07:28:22.543Z,87.17
2019-02-03T07:29:27.556Z,71.92
2019-02-03T07:30:32.728Z,78.10
2019-02-03T07:31:38.044Z,73.70
2019-02-03T07:32:43.082Z,68.57
2019-02-03T07:33:48.350Z,73.47
2019-02-03T07:34:53.733Z,79.27
2019-02-03T07:35:58.957Z,69.47
2019-02-03T07:37:04.563Z,70.95
2019-02-03T07:38:10.725Z,73.90
2019-02-03T07:39:15.767Z,73.78
2019-02-03T07:40:21.044Z,70.85
2019-02-03T07:41:26.158Z,72.00
2019-02-03T07:42:31.165Z,69.20
2019-02-03T07:43:36.408Z,77.40
2019-02-03T07:44:41.341Z,70.37
2019-02-03T07:45:46.543Z,67.85
2019-02-03T07:46:51.532Z,71.67
2019-02-03T07:47:56.495Z,68.05
2019-02-03T07:49:01.443Z,63.78
2019-02-03T07:50:06.890Z,62.70
2019-02-03T07:51:11.885Z,65.83
2019-02-03T07:52:17.043Z,71.15
2019-02-03T07:53:22.299Z,59.40
2019-02-03T07:54:27.261Z,66.42
2019-02-03T07:55:32.540Z,54.53
2019-02-03T07:56:37.827Z,47.53
2019-02-03T07:57:43.323Z,59.45
2019-02-03T07:58:48.210Z,65.08
2019-02-03T07:59:54.609Z,42.60
2019-02-03T08:00:59.688Z,59.25
2019-02-03T08:02:04.799Z,58.75
2019-02-03T08:03:09.787Z,52.73
2019-02-03T08:04:14.715Z,56.85
2019-02-03T08:05:20.137Z,59.88
2019-02-03T08:06:25.215Z,58.60
2019-02-03T08:07:30.332Z,75.12
2019-02-03T08:08:35.586Z,58.85
2019-02-03T08:09:40.525Z,57.90
2019-02-03T08:10:45.746Z,60.28
2019-02-03T08:11:50.737Z,54.73
2019-02-03T08:12:55.795Z,58.33
2019-02-03T08:14:00.718Z,63.00
2019-02-03T08:15:08.674Z,51.48
2019-02-03T08:16:13.959Z,54.40
2019-02-03T08:17:18.896Z,60.20
2019-02-03T08:18:24.000Z,57.20
2019-02-03T08:19:29.484Z,56.83
2019-02-03T08:20:35.015Z,56.33
2019-02-03T08:21:40.204Z,43.60
2019-02-03T08:22:45.182Z,52.50
2019-02-03T08:23:51.242Z,55.05
2019-02-03T08:24:56.645Z,51.08
2019-02-03T08:26:01.609Z,49.98
2019-02-03T08:27:06.667Z,52.67
2019-02-03T08:28:12.015Z,51.83
2019-02-03T08:29:16.937Z,54.15
2019-02-03T08:30:22.697Z,48.23
2019-02-03T08:31:27.595Z,56.28
2019-02-03T08:32:32.770Z,51.77
2019-02-03T08:33:37.689Z,51.68
2019-02-03T08:34:43.044Z,44.48
2019-02-03T08:35:48.122Z,54.88
2019-02-03T08:36:53.429Z,43.95
2019-02-03T08:37:58.387Z,52.60
2019-02-03T08:39:04.877Z,28.42
2019-02-03T08:40:13.759Z,50.78
2019-02-03T08:41:18.816Z,48.23
2019-02-03T08:42:24.138Z,46.00
2019-02-03T08:43:29.118Z,45.12
2019-02-03T08:44:34.082Z,40.00
2019-02-03T08:45:39.578Z,41.68
2019-02-03T08:46:44.548Z,46.33
2019-02-03T08:47:49.580Z,40.58
2019-02-03T08:48:54.618Z,48.87
2019-02-03T08:50:00.051Z,44.33
2019-02-03T08:51:05.466Z,38.17
2019-02-03T08:52:10.474Z,34.15
2019-02-03T08:53:15.757Z,39.98
2019-02-03T08:54:20.710Z,42.62
2019-02-03T08:55:26.052Z,42.23
2019-02-03T08:56:31.086Z,33.75
2019-02-03T08:57:36.361Z,41.08
2019-02-03T08:58:41.276Z,36.93
2019-02-03T08:59:46.192Z,38.75
2019-02-03T09:00:51.098Z,30.45
2019-02-03T09:01:57.404Z,40.17
2019-02-03T09:03:02.794Z,42.40
2019-02-03T09:04:08.298Z,42.62
2019-02-03T09:05:14.313Z,39.73
2019-02-03T09:06:19.182Z,30.50
2019-02-03T09:07:24.108Z,27.37
2019-02-03T09:08:29.126Z,42.90
2019-02-03T09:09:34.049Z,44.50
2019-02-03T09:10:47.982Z,33.60
2019-02-03T09:11:46.442Z,42.53
2019-02-03T09:12:51.504Z,34.30
2019-02-03T09:13:56.433Z,37.15
2019-02-03T09:15:01.401Z,28.95
2019-02-03T09:16:06.528Z,39.30
2019-02-03T09:17:11.517Z,39.67
2019-02-03T09:18:16.730Z,35.23
2019-02-03T09:19:21.740Z,35.03
2019-02-03T09:20:29.065Z,35.43
2019-02-03T09:21:34.102Z,41.65
2019-02-03T09:22:40.130Z,39.95
2019-02-03T09:23:45.023Z,34.58
2019-02-03T09:24:50.207Z,36.60
2019-02-03T09:25:55.350Z,34.83
2019-02-03T09:27:00.877Z,30.05
2019-02-03T09:28:06.404Z,38.30
2019-02-03T09:29:11.601Z,35.75
2019-02-03T09:30:19.519Z,33.75
2019-02-03T09:31:24.541Z,29.95
2019-02-03T09:32:29.806Z,33.15
2019-02-03T09:33:34.724Z,35.83
2019-02-03T09:34:39.745Z,28.35
2019-02-03T09:35:44.796Z,30.95
2019-02-03T09:36:50.030Z,38.85
2019-02-03T09:37:55.429Z,29.02
2019-02-03T09:39:00.426Z,40.30
2019-02-03T09:40:08.294Z,35.60
2019-02-03T09:41:13.291Z,27.30
2019-02-03T09:42:18.223Z,25.27
2019-02-03T09:43:23.513Z,27.65
2019-02-03T09:44:28.899Z,28.32
2019-02-03T09:45:33.878Z,30.37
2019-02-03T09:46:38.934Z,40.73
2019-02-03T09:47:43.841Z,32.63
2019-02-03T09:48:48.945Z,34.40
2019-02-03T09:49:53.885Z,26.68
2019-02-03T09:50:59.418Z,27.73
2019-02-03T09:52:04.709Z,26.37
2019-02-03T09:53:10.085Z,33.28
2019-02-03T09:54:15.032Z,25.23
2019-02-03T09:55:20.456Z,31.15
2019-02-03T09:56:25.765Z,32.23
2019-02-03T09:57:31.082Z,34.30
2019-02-03T09:58:35.948Z,27.07
2019-02-03T09:59:40.901Z,29.85
2019-02-03T10:00:45.898Z,29.63
2019-02-03T10:01:50.813Z,24.90
2019-02-03T10:02:57.248Z,23.65
2019-02-03T10:04:03.249Z,29.30
2019-02-03T10:05:08.643Z,27.67
2019-02-03T10:06:13.952Z,29.05
2019-02-03T10:07:19.881Z,29.60
2019-02-03T10:08:24.803Z,26.82
2019-02-03T10:09:29.841Z,31.30
2019-02-03T10:10:36.641Z,23.42
2019-02-03T10:11:41.613Z,25.77
2019-02-03T10:12:47.603Z,16.90
2019-02-03T10:13:52.803Z,24.55
2019-02-03T10:14:58.153Z,18.42
2019-02-03T10:16:03.093Z,25.40
2019-02-03T10:17:08.103Z,23.90
2019-02-03T10:18:13.223Z,22.73
2019-02-03T10:19:18.238Z,22.27
2019-02-03T10:20:24.054Z,24.95
2019-02-03T10:21:29.120Z,30.50
2019-02-03T10:22:34.528Z,21.52
2019-02-03T10:23:39.440Z,26.17
2019-02-03T10:24:44.357Z,16.73
2019-02-03T10:25:49.444Z,26.25
2019-02-03T10:26:54.476Z,25.05
2019-02-03T10:27:59.529Z,16.35
2019-02-03T10:29:05.016Z,25.85
2019-02-03T10:30:10.814Z,15.83
2019-02-03T10:31:15.865Z,23.87
2019-02-03T10:32:20.939Z,19.32
2019-02-03T10:33:25.914Z,21.82
2019-02-03T10:34:31.272Z,24.92
2019-02-03T10:35:36.794Z,24.07
2019-02-03T10:36:42.065Z,21.60
2019-02-03T10:37:48.597Z,22.37
2019-02-03T10:38:53.616Z,23.52
2019-02-03T10:39:58.592Z,18.73
2019-02-03T10:41:03.650Z,16.70
2019-02-03T10:42:08.651Z,16.80
2019-02-03T10:43:13.851Z,19.50
2019-02-03T10:44:18.873Z,15.28
2019-02-03T10:45:24.594Z,19.73
2019-02-03T10:46:29.608Z,18.35
2019-02-03T10:47:34.956Z,17.48
2019-02-03T10:48:39.997Z,19.12
2019-02-03T10:49:46.697Z,23.38
2019-02-03T10:50:51.820Z,15.98
2019-02-03T10:51:56.854Z,20.88
2019-02-03T10:53:01.938Z,17.55
2019-02-03T10:54:07.141Z,22.10
2019-02-03T10:55:13.994Z,15.05
2019-02-03T10:56:18.994Z,18.37
2019-02-03T10:57:24.239Z,18.82
2019-02-03T10:58:32.131Z,20.97
2019-02-03T10:59:37.637Z,22.22
2019-02-03T11:00:42.969Z,13.55
2019-02-03T11:01:47.909Z,20.02
2019-02-03T11:02:53.081Z,19.87
2019-02-03T11:03:57.983Z,24.00
2019-02-03T11:05:05.104Z,22.48
2019-02-03T11:06:10.267Z,13.38
2019-02-03T11:07:15.266Z,17.52
2019-02-03T11:08:20.330Z,15.08
2019-02-03T11:09:25.337Z,17.23
2019-02-03T11:10:30.487Z,17.48
2019-02-03T11:12:42.232Z,12.82
2019-02-03T11:13:47.142Z,16.90
2019-02-03T11:14:52.133Z,17.48
2019-02-03T11:15:57.390Z,24.00
2019-02-03T11:17:02.530Z,18.30
2019-02-03T11:18:07.759Z,18.50
2019-02-03T11:19:13.193Z,17.35
2019-02-03T11:20:21.046Z,20.82
2019-02-03T11:21:26.499Z,17.37
2019-02-03T11:22:31.986Z,18.70
2019-02-03T11:23:37.488Z,15.10
2019-02-03T11:24:42.391Z,15.78
2019-02-03T11:25:47.447Z,13.68
2019-02-03T11:26:52.380Z,16.87
2019-02-03T11:27:57.410Z,11.97
2019-02-03T11:29:02.370Z,13.95
2019-02-03T11:30:11.485Z,14.87
2019-02-03T11:31:16.467Z,17.30
2019-02-03T11:32:21.423Z,20.17
2019-02-03T11:33:26.401Z,13.93
2019-02-03T11:34:31.602Z,11.35
2019-02-03T11:35:36.739Z,21.85
2019-02-03T11:36:41.734Z,12.53
2019-02-03T11:37:46.905Z,15.23
2019-02-03T11:38:52.211Z,14.95
2019-02-03T11:39:57.919Z,9.68
2019-02-03T11:41:03.326Z,20.65
2019-02-03T11:42:08.244Z,13.32
2019-02-03T11:43:13.249Z,13.15
2019-02-03T11:44:18.256Z,11.33
2019-02-03T11:45:31.985Z,9.58
2019-02-03T11:46:37.036Z,14.30
2019-02-03T11:47:41.924Z,17.87
2019-02-03T11:48:46.880Z,18.50
2019-02-03T11:49:51.816Z,16.12
2019-02-03T11:50:56.886Z,13.62
2019-02-03T11:52:01.768Z,15.18
2019-02-03T11:53:09.606Z,11.73
2019-02-03T11:54:14.684Z,10.43
2019-02-03T11:55:19.707Z,17.57
2019-02-03T11:56:24.925Z,17.15
2019-02-03T11:57:29.962Z,17.87
2019-02-03T11:58:35.297Z,15.13
2019-02-03T11:59:40.489Z,13.45
2019-02-03T12:00:45.766Z,13.90
2019-02-03T12:01:50.756Z,11.15
2019-02-03T12:02:56.196Z,17.90
2019-02-03T12:04:01.439Z,12.65
2019-02-03T12:05:07.212Z,16.52
2019-02-03T12:06:12.544Z,10.28
2019-02-03T12:07:17.627Z,23.38
2019-02-03T12:08:22.815Z,14.50
2019-02-03T12:09:27.731Z,15.32
2019-02-03T12:10:33.006Z,14.68
2019-02-03T12:11:38.127Z,11.33
2019-02-03T12:12:43.196Z,12.68
2019-02-03T12:13:48.117Z,11.12
2019-02-03T12:14:55.301Z,16.27
2019-02-03T12:16:10.116Z,13.60
2019-02-03T12:17:11.880Z,6.00
2019-02-03T12:18:16.928Z,14.93
2019-02-03T12:19:21.815Z,11.65
2019-02-03T12:20:26.806Z,11.57
2019-02-03T12:21:31.752Z,11.60
2019-02-03T12:22:36.991Z,13.43
2019-02-03T12:23:42.483Z,11.12
2019-02-03T12:24:47.560Z,9.25
2019-02-03T12:25:52.636Z,11.25
2019-02-03T12:26:57.594Z,12.58
2019-02-03T12:28:10.765Z,21.57
2019-02-03T12:29:15.677Z,12.15
2019-02-03T12:30:23.842Z,10.93
2019-02-03T12:31:30.277Z,10.90
2019-02-03T12:32:35.399Z,13.08
2019-02-03T12:33:40.402Z,11.75
2019-02-03T12:34:45.312Z,11.80
2019-02-03T12:35:50.597Z,16.77
2019-02-03T12:36:56.376Z,10.50
2019-02-03T12:38:01.451Z,8.63
2019-02-03T12:39:09.647Z,13.20
2019-02-03T12:40:17.935Z,10.65
2019-02-03T12:41:23.268Z,5.70
2019-02-03T12:42:28.269Z,10.80
2019-02-03T12:43:33.546Z,8.88
2019-02-03T12:44:38.471Z,13.55
2019-02-03T12:45:43.499Z,8.43
2019-02-03T12:46:48.681Z,6.85
2019-02-03T12:47:54.157Z,7.80
2019-02-03T12:48:59.112Z,6.35
2019-02-03T12:50:04.922Z,8.60
2019-02-03T12:51:10.389Z,10.13
2019-02-03T12:52:15.291Z,8.35
2019-02-03T12:53:20.606Z,8.68
2019-02-03T12:54:25.562Z,6.72
2019-02-03T12:55:31.417Z,7.30
2019-02-03T12:56:36.916Z,11.03
2019-02-03T12:57:42.495Z,11.95
2019-02-03T12:58:47.469Z,8.88
2019-02-03T12:59:55.450Z,9.50
2019-02-03T13:01:00.713Z,9.20
2019-02-03T13:02:06.282Z,8.90
2019-02-03T13:03:11.290Z,11.68
2019-02-03T13:04:16.229Z,8.10
2019-02-03T13:05:22.623Z,7.00
2019-02-03T13:06:27.511Z,8.85
2019-02-03T13:07:36.026Z,11.20
2019-02-03T13:08:41.095Z,7.53
2019-02-03T13:09:47.087Z,9.00
2019-02-03T13:10:52.098Z,9.58
2019-02-03T13:11:57.000Z,4.75
2019-02-03T13:13:02.091Z,11.30
2019-02-03T13:14:07.167Z,13.38
2019-02-03T13:15:15.268Z,7.28
2019-02-03T13:16:20.800Z,9.60
2019-02-03T13:17:26.038Z,4.03
2019-02-03T13:18:31.106Z,7.67
2019-02-03T13:19:36.355Z,7.45
2019-02-03T13:20:42.690Z,7.90
2019-02-03T13:21:48.159Z,8.10
2019-02-03T13:22:54.078Z,7.65
2019-02-03T13:23:59.039Z,10.43
2019-02-03T13:25:04.829Z,8.18
2019-02-03T13:26:10.138Z,17.87
2019-02-03T13:27:15.424Z,9.13
2019-02-03T13:28:20.824Z,10.13
2019-02-03T13:29:26.363Z,7.87
2019-02-03T13:30:36.617Z,8.28
2019-02-03T13:31:41.894Z,9.28
2019-02-03T13:32:47.311Z,11.57
2019-02-03T13:33:52.397Z,10.03
2019-02-03T13:34:57.569Z,7.03
2019-02-03T13:36:02.670Z,9.88
2019-02-03T13:37:07.650Z,7.80
2019-02-03T13:38:12.679Z,6.97
2019-02-03T13:39:17.640Z,3.10
2019-02-03T13:40:24.325Z,6.15
2019-02-03T13:41:29.334Z,4.85
2019-02-03T13:42:37.591Z,8.98
2019-02-03T13:43:41.500Z,3.87
2019-02-03T13:44:46.518Z,7.08
2019-02-03T13:45:51.522Z,8.70
2019-02-03T13:46:56.452Z,8.53
2019-02-03T13:48:01.620Z,4.33
2019-02-03T13:49:06.711Z,8.13
2019-02-03T13:50:14.865Z,5.58
2019-02-03T13:51:19.841Z,5.47
2019-02-03T13:52:24.825Z,8.85
2019-02-03T13:53:29.826Z,6.55
2019-02-03T13:54:34.768Z,9.20
2019-02-03T13:55:40.021Z,8.45
2019-02-03T13:56:46.598Z,7.05
2019-02-03T13:57:52.515Z,6.00
2019-02-03T13:58:57.454Z,5.25
2019-02-03T14:00:02.524Z,8.40
2019-02-03T14:01:08.219Z,8.78
2019-02-03T14:02:13.315Z,8.30